sensor_id;sensor_type;location;lat;lon;timestamp;temperature;humidity
3356;DHT22;1691;52.486;13.374;2023-03-14T00:31:18;12.40;98.50
3356;DHT22;1691;52.486;13.374;2023-03-14T00:34:58;12.40;98.60
3356;DHT22;1691;52.486;13.374;2023-03-14T00:47:04;12.20;98.70
3356;DHT22;1691;52.486;13.374;2023-03-14T01:33:44;11.80;98.70
3356;DHT22;1691;52.486;13.374;2023-03-14T01:36:59;11.70;98.70
3356;DHT22;1691;52.486;13.374;2023-03-14T01:39:52;11.70;98.70
3356;DHT22;1691;52.486;13.374;2023-03-14T02:05:20;12.00;98.70
3356;DHT22;1691;52.486;13.374;2023-03-14T02:09:10;12.00;98.70
3356;DHT22;1691;52.486;13.374;2023-03-14T02:13:05;12.00;98.70
3356;DHT22;1691;52.486;13.374;2023-03-14T02:29:10;11.70;98.70
3356;DHT22;1691;52.486;13.374;2023-03-14T02:31:37;11.70;98.70
3356;DHT22;1691;52.486;13.374;2023-03-14T02:38:13;11.70;98.70
3356;DHT22;1691;52.486;13.374;2023-03-14T02:40:42;11.80;98.70
3356;DHT22;1691;52.486;13.374;2023-03-14T02:43:10;11.80;98.70
3356;DHT22;1691;52.486;13.374;2023-03-14T02:45:44;11.80;98.70
3356;DHT22;1691;52.486;13.374;2023-03-14T02:49:08;11.90;98.70
3356;DHT22;1691;52.486;13.374;2023-03-14T02:51:17;11.90;98.70
3356;DHT22;1691;52.486;13.374;2023-03-14T02:53:45;11.90;98.70
3356;DHT22;1691;52.486;13.374;2023-03-14T02:56:12;11.90;98.70
3356;DHT22;1691;52.486;13.374;2023-03-14T02:58:39;11.90;98.70
3356;DHT22;1691;52.486;13.374;2023-03-14T03:01:07;11.90;98.70
3356;DHT22;1691;52.486;13.374;2023-03-14T03:03:34;11.90;98.70
3356;DHT22;1691;52.486;13.374;2023-03-14T03:06:02;11.90;98.70
3356;DHT22;1691;52.486;13.374;2023-03-14T03:08:29;11.80;98.70
3356;DHT22;1691;52.486;13.374;2023-03-14T03:10:57;11.80;98.70
3356;DHT22;1691;52.486;13.374;2023-03-14T03:13:25;11.80;98.70
3356;DHT22;1691;52.486;13.374;2023-03-14T03:15:53;11.70;98.70
3356;DHT22;1691;52.486;13.374;2023-03-14T03:18:20;11.70;98.70
3356;DHT22;1691;52.486;13.374;2023-03-14T03:20:47;11.70;98.70
3356;DHT22;1691;52.486;13.374;2023-03-14T03:23:14;11.70;98.70
3356;DHT22;1691;52.486;13.374;2023-03-14T03:25:41;11.70;98.70
3356;DHT22;1691;52.486;13.374;2023-03-14T03:28:08;11.60;98.70
3356;DHT22;1691;52.486;13.374;2023-03-14T03:30:44;11.60;98.70
3356;DHT22;1691;52.486;13.374;2023-03-14T03:33:11;11.60;98.70
3356;DHT22;1691;52.486;13.374;2023-03-14T03:35:43;11.60;98.70
3356;DHT22;1691;52.486;13.374;2023-03-14T03:38:12;11.50;98.70
3356;DHT22;1691;52.486;13.374;2023-03-14T03:40:39;11.50;98.70
3356;DHT22;1691;52.486;13.374;2023-03-14T03:43:06;11.50;98.70
3356;DHT22;1691;52.486;13.374;2023-03-14T03:45:33;11.50;98.70
3356;DHT22;1691;52.486;13.374;2023-03-14T03:48:00;11.50;98.70
3356;DHT22;1691;52.486;13.374;2023-03-14T03:50:27;11.40;98.70
3356;DHT22;1691;52.486;13.374;2023-03-14T03:52:54;11.40;98.70
3356;DHT22;1691;52.486;13.374;2023-03-14T03:55:20;11.40;98.70
3356;DHT22;1691;52.486;13.374;2023-03-14T03:57:47;11.40;98.70
3356;DHT22;1691;52.486;13.374;2023-03-14T04:00:15;11.40;98.70
3356;DHT22;1691;52.486;13.374;2023-03-14T04:02:42;11.40;98.70
3356;DHT22;1691;52.486;13.374;2023-03-14T04:05:09;11.40;98.70
3356;DHT22;1691;52.486;13.374;2023-03-14T04:07:36;11.40;98.70
3356;DHT22;1691;52.486;13.374;2023-03-14T04:10:03;11.40;98.70
3356;DHT22;1691;52.486;13.374;2023-03-14T04:12:30;11.40;98.70
3356;DHT22;1691;52.486;13.374;2023-03-14T04:14:57;11.40;98.70
3356;DHT22;1691;52.486;13.374;2023-03-14T04:17:24;11.40;98.70
3356;DHT22;1691;52.486;13.374;2023-03-14T04:19:51;11.40;98.70
3356;DHT22;1691;52.486;13.374;2023-03-14T04:22:20;11.30;98.70
3356;DHT22;1691;52.486;13.374;2023-03-14T04:24:47;11.40;98.70
3356;DHT22;1691;52.486;13.374;2023-03-14T04:27:14;11.40;98.70
3356;DHT22;1691;52.486;13.374;2023-03-14T04:29:44;11.30;98.70
3356;DHT22;1691;52.486;13.374;2023-03-14T04:32:11;11.30;98.70
3356;DHT22;1691;52.486;13.374;2023-03-14T04:34:38;11.40;98.70
3356;DHT22;1691;52.486;13.374;2023-03-14T04:37:04;11.40;98.70
3356;DHT22;1691;52.486;13.374;2023-03-14T04:39:31;11.30;98.70
3356;DHT22;1691;52.486;13.374;2023-03-14T04:41:58;11.30;98.70
3356;DHT22;1691;52.486;13.374;2023-03-14T04:44:26;11.30;98.70
3356;DHT22;1691;52.486;13.374;2023-03-14T04:46:53;11.30;98.70
3356;DHT22;1691;52.486;13.374;2023-03-14T04:49:20;11.30;98.70
3356;DHT22;1691;52.486;13.374;2023-03-14T04:51:47;11.30;98.70
3356;DHT22;1691;52.486;13.374;2023-03-14T04:54:14;11.30;98.70
3356;DHT22;1691;52.486;13.374;2023-03-14T04:56:41;11.30;98.70
3356;DHT22;1691;52.486;13.374;2023-03-14T04:59:08;11.30;98.70
3356;DHT22;1691;52.486;13.374;2023-03-14T05:01:35;11.30;98.70
3356;DHT22;1691;52.486;13.374;2023-03-14T05:04:02;11.30;98.70
3356;DHT22;1691;52.486;13.374;2023-03-14T05:06:29;11.20;98.70
3356;DHT22;1691;52.486;13.374;2023-03-14T05:08:56;11.20;98.70
3356;DHT22;1691;52.486;13.374;2023-03-14T05:11:23;11.20;98.70
3356;DHT22;1691;52.486;13.374;2023-03-14T05:13:50;11.30;98.70
3356;DHT22;1691;52.486;13.374;2023-03-14T05:16:17;11.30;98.70
3356;DHT22;1691;52.486;13.374;2023-03-14T05:18:44;11.30;98.70
3356;DHT22;1691;52.486;13.374;2023-03-14T05:21:11;11.30;98.70
3356;DHT22;1691;52.486;13.374;2023-03-14T05:23:38;11.30;98.70
3356;DHT22;1691;52.486;13.374;2023-03-14T05:26:05;11.30;98.70
3356;DHT22;1691;52.486;13.374;2023-03-14T05:28:32;11.30;98.70
3356;DHT22;1691;52.486;13.374;2023-03-14T05:30:59;11.30;98.70
3356;DHT22;1691;52.486;13.374;2023-03-14T05:33:26;11.30;98.70
3356;DHT22;1691;52.486;13.374;2023-03-14T05:35:53;11.30;98.70
3356;DHT22;1691;52.486;13.374;2023-03-14T05:38:20;11.30;98.70
3356;DHT22;1691;52.486;13.374;2023-03-14T05:40:48;11.30;98.70
3356;DHT22;1691;52.486;13.374;2023-03-14T05:43:15;11.30;98.70
3356;DHT22;1691;52.486;13.374;2023-03-14T05:45:42;11.40;98.70
3356;DHT22;1691;52.486;13.374;2023-03-14T05:48:10;11.40;98.70
3356;DHT22;1691;52.486;13.374;2023-03-14T05:50:37;11.40;98.70
3356;DHT22;1691;52.486;13.374;2023-03-14T05:53:04;11.40;98.60
3356;DHT22;1691;52.486;13.374;2023-03-14T05:55:31;11.40;98.60
3356;DHT22;1691;52.486;13.374;2023-03-14T05:57:58;11.40;98.50
3356;DHT22;1691;52.486;13.374;2023-03-14T06:00:25;11.40;98.40
3356;DHT22;1691;52.486;13.374;2023-03-14T06:02:52;11.40;98.30
3356;DHT22;1691;52.486;13.374;2023-03-14T06:05:19;11.50;98.20
3356;DHT22;1691;52.486;13.374;2023-03-14T06:07:46;11.50;98.20
3356;DHT22;1691;52.486;13.374;2023-03-14T06:10:13;11.50;98.00
3356;DHT22;1691;52.486;13.374;2023-03-14T06:12:39;11.50;98.00
3356;DHT22;1691;52.486;13.374;2023-03-14T06:15:07;11.50;97.80
3356;DHT22;1691;52.486;13.374;2023-03-14T06:17:34;11.60;97.80
3356;DHT22;1691;52.486;13.374;2023-03-14T06:20:01;11.60;97.60
3356;DHT22;1691;52.486;13.374;2023-03-14T06:22:28;11.60;97.60
3356;DHT22;1691;52.486;13.374;2023-03-14T06:24:55;11.70;97.30
3356;DHT22;1691;52.486;13.374;2023-03-14T06:27:22;11.70;97.20
3356;DHT22;1691;52.486;13.374;2023-03-14T06:29:49;11.70;97.10
3356;DHT22;1691;52.486;13.374;2023-03-14T06:32:16;11.80;97.00
3356;DHT22;1691;52.486;13.374;2023-03-14T06:34:44;11.80;96.80
3356;DHT22;1691;52.486;13.374;2023-03-14T06:37:11;11.90;96.70
3356;DHT22;1691;52.486;13.374;2023-03-14T06:39:38;11.90;96.60
3356;DHT22;1691;52.486;13.374;2023-03-14T06:42:05;12.00;96.40
3356;DHT22;1691;52.486;13.374;2023-03-14T06:44:32;12.00;96.30
3356;DHT22;1691;52.486;13.374;2023-03-14T06:46:59;12.10;96.10
3356;DHT22;1691;52.486;13.374;2023-03-14T06:49:26;12.20;95.90
3356;DHT22;1691;52.486;13.374;2023-03-14T06:51:53;12.30;95.80
3356;DHT22;1691;52.486;13.374;2023-03-14T06:54:20;12.40;95.60
3356;DHT22;1691;52.486;13.374;2023-03-14T06:56:47;12.50;95.40
3356;DHT22;1691;52.486;13.374;2023-03-14T06:59:14;12.60;95.20
3356;DHT22;1691;52.486;13.374;2023-03-14T07:01:41;12.80;95.10
3356;DHT22;1691;52.486;13.374;2023-03-14T07:04:09;13.00;94.80
3356;DHT22;1691;52.486;13.374;2023-03-14T07:06:37;13.20;94.40
3356;DHT22;1691;52.486;13.374;2023-03-14T07:09:06;13.40;94.10
3356;DHT22;1691;52.486;13.374;2023-03-14T07:11:33;13.70;93.90
3356;DHT22;1691;52.486;13.374;2023-03-14T07:13:59;13.90;93.20
3356;DHT22;1691;52.486;13.374;2023-03-14T07:16:26;14.00;92.70
3356;DHT22;1691;52.486;13.374;2023-03-14T07:18:55;14.00;92.40
3356;DHT22;1691;52.486;13.374;2023-03-14T07:21:25;14.00;92.20
3356;DHT22;1691;52.486;13.374;2023-03-14T07:24:31;14.00;92.00
3356;DHT22;1691;52.486;13.374;2023-03-14T07:27:28;14.00;91.90
3356;DHT22;1691;52.486;13.374;2023-03-14T07:30:04;14.00;92.10
3356;DHT22;1691;52.486;13.374;2023-03-14T07:32:48;14.20;91.90
3356;DHT22;1691;52.486;13.374;2023-03-14T07:35:20;14.60;91.70
3356;DHT22;1691;52.486;13.374;2023-03-14T07:37:51;15.20;91.20
3356;DHT22;1691;52.486;13.374;2023-03-14T07:40:31;15.60;90.10
3356;DHT22;1691;52.486;13.374;2023-03-14T07:43:02;15.70;89.00
3356;DHT22;1691;52.486;13.374;2023-03-14T07:45:44;15.70;88.20
3356;DHT22;1691;52.486;13.374;2023-03-14T07:48:19;15.70;87.70
3356;DHT22;1691;52.486;13.374;2023-03-14T07:51:06;15.70;87.50
3356;DHT22;1691;52.486;13.374;2023-03-14T07:53:44;15.70;87.30
3356;DHT22;1691;52.486;13.374;2023-03-14T07:56:30;15.70;87.30
3356;DHT22;1691;52.486;13.374;2023-03-14T07:59:08;15.80;86.70
3356;DHT22;1691;52.486;13.374;2023-03-14T08:01:48;15.90;86.50
3356;DHT22;1691;52.486;13.374;2023-03-14T08:04:23;16.10;85.60
3356;DHT22;1691;52.486;13.374;2023-03-14T08:07:18;16.20;85.40
3356;DHT22;1691;52.486;13.374;2023-03-14T08:10:07;16.30;85.40
3356;DHT22;1691;52.486;13.374;2023-03-14T08:13:06;16.40;84.90
3356;DHT22;1691;52.486;13.374;2023-03-14T08:15:50;16.30;84.30
3356;DHT22;1691;52.486;13.374;2023-03-14T08:18:21;16.10;84.10
3356;DHT22;1691;52.486;13.374;2023-03-14T08:21:06;15.90;84.30
3356;DHT22;1691;52.486;13.374;2023-03-14T08:23:45;15.70;84.50
3356;DHT22;1691;52.486;13.374;2023-03-14T08:26:34;15.50;84.70
3356;DHT22;1691;52.486;13.374;2023-03-14T08:29:32;15.30;85.10
3356;DHT22;1691;52.486;13.374;2023-03-14T08:32:09;15.20;85.40
3356;DHT22;1691;52.486;13.374;2023-03-14T08:34:54;15.20;85.60
3356;DHT22;1691;52.486;13.374;2023-03-14T08:37:37;15.10;85.40
3356;DHT22;1691;52.486;13.374;2023-03-14T08:40:16;15.00;85.60
3356;DHT22;1691;52.486;13.374;2023-03-14T08:42:52;14.90;85.60
3356;DHT22;1691;52.486;13.374;2023-03-14T08:45:32;14.80;85.60
3356;DHT22;1691;52.486;13.374;2023-03-14T08:48:06;14.70;85.80
3356;DHT22;1691;52.486;13.374;2023-03-14T08:50:45;14.60;86.20
3356;DHT22;1691;52.486;13.374;2023-03-14T08:53:26;14.60;86.40
3356;DHT22;1691;52.486;13.374;2023-03-14T08:55:59;14.60;86.20
3356;DHT22;1691;52.486;13.374;2023-03-14T08:58:40;14.50;86.40
3356;DHT22;1691;52.486;13.374;2023-03-14T09:01:16;14.50;86.50
3356;DHT22;1691;52.486;13.374;2023-03-14T09:04:16;14.50;86.40
3356;DHT22;1691;52.486;13.374;2023-03-14T09:06:51;14.40;86.50
3356;DHT22;1691;52.486;13.374;2023-03-14T09:09:20;14.40;86.70
3356;DHT22;1691;52.486;13.374;2023-03-14T09:12:14;14.60;86.50
3356;DHT22;1691;52.486;13.374;2023-03-14T09:14:48;14.70;86.70
3356;DHT22;1691;52.486;13.374;2023-03-14T09:17:25;15.10;86.70
3356;DHT22;1691;52.486;13.374;2023-03-14T09:19:53;16.10;85.80
3356;DHT22;1691;52.486;13.374;2023-03-14T09:22:31;17.60;83.20
3356;DHT22;1691;52.486;13.374;2023-03-14T09:25:06;19.10;79.30
3356;DHT22;1691;52.486;13.374;2023-03-14T09:27:40;20.40;75.60
3356;DHT22;1691;52.486;13.374;2023-03-14T09:30:23;21.70;71.80
3356;DHT22;1691;52.486;13.374;2023-03-14T09:32:53;22.90;67.50
3356;DHT22;1691;52.486;13.374;2023-03-14T09:35:24;23.60;64.90
3356;DHT22;1691;52.486;13.374;2023-03-14T09:37:58;24.10;62.00
3356;DHT22;1691;52.486;13.374;2023-03-14T09:40:35;24.50;60.50
3356;DHT22;1691;52.486;13.374;2023-03-14T09:43:11;24.60;58.70
3356;DHT22;1691;52.486;13.374;2023-03-14T09:45:55;24.00;58.20
3356;DHT22;1691;52.486;13.374;2023-03-14T09:48:33;23.00;59.50
3356;DHT22;1691;52.486;13.374;2023-03-14T09:51:18;21.90;61.00
3356;DHT22;1691;52.486;13.374;2023-03-14T09:53:56;20.70;62.30
3356;DHT22;1691;52.486;13.374;2023-03-14T09:56:32;19.70;64.00
3356;DHT22;1691;52.486;13.374;2023-03-14T09:59:15;18.80;66.20
3356;DHT22;1691;52.486;13.374;2023-03-14T10:02:17;18.20;67.50
3356;DHT22;1691;52.486;13.374;2023-03-14T10:05:05;17.60;68.70
3356;DHT22;1691;52.486;13.374;2023-03-14T10:07:50;17.20;70.30
3356;DHT22;1691;52.486;13.374;2023-03-14T10:10:29;16.90;70.90
3356;DHT22;1691;52.486;13.374;2023-03-14T10:16:01;16.40;71.80
3356;DHT22;1691;52.486;13.374;2023-03-14T10:18:45;16.30;72.20
3356;DHT22;1691;52.486;13.374;2023-03-14T10:21:28;16.00;72.90
3356;DHT22;1691;52.486;13.374;2023-03-14T10:24:30;15.90;73.50
3356;DHT22;1691;52.486;13.374;2023-03-14T10:27:18;15.90;73.30
3356;DHT22;1691;52.486;13.374;2023-03-14T10:33:24;15.80;74.40
3356;DHT22;1691;52.486;13.374;2023-03-14T10:36:21;15.70;75.20
3356;DHT22;1691;52.486;13.374;2023-03-14T10:39:27;15.60;75.40
3356;DHT22;1691;52.486;13.374;2023-03-14T10:44:51;15.50;75.70
3356;DHT22;1691;52.486;13.374;2023-03-14T10:47:27;15.40;75.70
3356;DHT22;1691;52.486;13.374;2023-03-14T10:50:25;15.40;75.90
3356;DHT22;1691;52.486;13.374;2023-03-14T10:53:01;15.40;75.40
3356;DHT22;1691;52.486;13.374;2023-03-14T10:55:43;15.30;75.90
3356;DHT22;1691;52.486;13.374;2023-03-14T10:58:26;15.30;75.90
3356;DHT22;1691;52.486;13.374;2023-03-14T11:10:33;15.30;76.70
3356;DHT22;1691;52.486;13.374;2023-03-14T11:13:25;15.30;76.30
3356;DHT22;1691;52.486;13.374;2023-03-14T11:16:20;15.30;76.90
3356;DHT22;1691;52.486;13.374;2023-03-14T11:19:46;15.40;76.90
3356;DHT22;1691;52.486;13.374;2023-03-14T11:23:23;15.50;76.90
3356;DHT22;1691;52.486;13.374;2023-03-14T11:33:56;15.40;77.80
3356;DHT22;1691;52.486;13.374;2023-03-14T11:36:51;15.40;78.30
3356;DHT22;1691;52.486;13.374;2023-03-14T11:39:29;15.40;78.20
3356;DHT22;1691;52.486;13.374;2023-03-14T11:42:14;15.40;78.50
3356;DHT22;1691;52.486;13.374;2023-03-14T11:44:49;15.40;78.50
3356;DHT22;1691;52.486;13.374;2023-03-14T11:50:21;15.30;78.90
3356;DHT22;1691;52.486;13.374;2023-03-14T11:53:03;15.30;79.30
3356;DHT22;1691;52.486;13.374;2023-03-14T11:55:43;15.40;79.70
3356;DHT22;1691;52.486;13.374;2023-03-14T11:58:45;15.40;79.80
3356;DHT22;1691;52.486;13.374;2023-03-14T12:01:40;15.40;79.80
3356;DHT22;1691;52.486;13.374;2023-03-14T12:08:10;15.50;80.80
3356;DHT22;1691;52.486;13.374;2023-03-14T12:11:12;15.50;80.60
3356;DHT22;1691;52.486;13.374;2023-03-14T12:13:53;15.50;81.00
3356;DHT22;1691;52.486;13.374;2023-03-14T12:16:39;15.50;80.80
3356;DHT22;1691;52.486;13.374;2023-03-14T12:19:28;15.60;81.10
3356;DHT22;1691;52.486;13.374;2023-03-14T12:22:21;15.60;81.10
3356;DHT22;1691;52.486;13.374;2023-03-14T12:25:02;15.60;80.80
3356;DHT22;1691;52.486;13.374;2023-03-14T12:30:37;15.60;81.00
3356;DHT22;1691;52.486;13.374;2023-03-14T12:35:47;15.60;81.00
3356;DHT22;1691;52.486;13.374;2023-03-14T12:38:24;15.60;81.10
3356;DHT22;1691;52.486;13.374;2023-03-14T12:41:19;15.60;81.70
3356;DHT22;1691;52.486;13.374;2023-03-14T12:45:13;15.60;82.10
3356;DHT22;1691;52.486;13.374;2023-03-14T12:48:22;15.50;83.00
3356;DHT22;1691;52.486;13.374;2023-03-14T12:51:05;15.50;83.90
3356;DHT22;1691;52.486;13.374;2023-03-14T12:54:09;15.60;84.70
3356;DHT22;1691;52.486;13.374;2023-03-14T12:57:20;15.70;84.30
3356;DHT22;1691;52.486;13.374;2023-03-14T13:00:02;15.80;83.80
3356;DHT22;1691;52.486;13.374;2023-03-14T13:03:20;15.80;83.40
3356;DHT22;1691;52.486;13.374;2023-03-14T13:05:58;15.70;83.80
3356;DHT22;1691;52.486;13.374;2023-03-14T13:11:29;15.20;85.20
3356;DHT22;1691;52.486;13.374;2023-03-14T13:14:13;14.90;86.40
3356;DHT22;1691;52.486;13.374;2023-03-14T13:16:44;14.60;87.50
3356;DHT22;1691;52.486;13.374;2023-03-14T13:19:30;14.20;89.20
3356;DHT22;1691;52.486;13.374;2023-03-14T13:22:35;13.90;90.40
3356;DHT22;1691;52.486;13.374;2023-03-14T13:25:07;13.60;91.30
3356;DHT22;1691;52.486;13.374;2023-03-14T13:27:47;13.50;92.10
3356;DHT22;1691;52.486;13.374;2023-03-14T13:30:27;13.50;93.00
3356;DHT22;1691;52.486;13.374;2023-03-14T13:32:57;13.70;93.70
3356;DHT22;1691;52.486;13.374;2023-03-14T13:35:29;13.90;94.20
3356;DHT22;1691;52.486;13.374;2023-03-14T13:38:17;14.10;94.40
3356;DHT22;1691;52.486;13.374;2023-03-14T13:40:47;14.20;94.50
3356;DHT22;1691;52.486;13.374;2023-03-14T13:43:25;14.20;94.50
3356;DHT22;1691;52.486;13.374;2023-03-14T13:46:04;14.20;94.70
3356;DHT22;1691;52.486;13.374;2023-03-14T13:48:53;14.10;94.80
3356;DHT22;1691;52.486;13.374;2023-03-14T13:51:26;14.10;95.00
3356;DHT22;1691;52.486;13.374;2023-03-14T13:54:01;14.00;94.90
3356;DHT22;1691;52.486;13.374;2023-03-14T13:56:36;14.00;95.00
3356;DHT22;1691;52.486;13.374;2023-03-14T13:59:25;14.00;94.90
3356;DHT22;1691;52.486;13.374;2023-03-14T14:02:03;14.00;94.70
3356;DHT22;1691;52.486;13.374;2023-03-14T14:04:36;14.10;94.80
3356;DHT22;1691;52.486;13.374;2023-03-14T14:07:13;14.20;94.70
3356;DHT22;1691;52.486;13.374;2023-03-14T14:09:48;14.30;94.70
3356;DHT22;1691;52.486;13.374;2023-03-14T14:12:19;14.40;94.60
3356;DHT22;1691;52.486;13.374;2023-03-14T14:15:06;14.50;94.20
3356;DHT22;1691;52.486;13.374;2023-03-14T14:17:41;14.50;93.90
3356;DHT22;1691;52.486;13.374;2023-03-14T14:20:26;14.60;93.70
3356;DHT22;1691;52.486;13.374;2023-03-14T14:23:07;14.60;93.50
3356;DHT22;1691;52.486;13.374;2023-03-14T14:25:40;14.70;93.20
3356;DHT22;1691;52.486;13.374;2023-03-14T14:33:42;14.60;92.20
3356;DHT22;1691;52.486;13.374;2023-03-14T14:36:51;14.60;92.10
3356;DHT22;1691;52.486;13.374;2023-03-14T14:39:24;14.60;92.00
3356;DHT22;1691;52.486;13.374;2023-03-14T14:41:53;14.70;91.90
3356;DHT22;1691;52.486;13.374;2023-03-14T14:44:34;14.70;91.50
3356;DHT22;1691;52.486;13.374;2023-03-14T14:47:02;14.80;91.10
3356;DHT22;1691;52.486;13.374;2023-03-14T14:49:32;14.90;90.90
3356;DHT22;1691;52.486;13.374;2023-03-14T14:52:21;14.90;90.60
3356;DHT22;1691;52.486;13.374;2023-03-14T14:54:59;14.90;90.30
3356;DHT22;1691;52.486;13.374;2023-03-14T14:57:39;14.90;90.40
3356;DHT22;1691;52.486;13.374;2023-03-14T15:00:16;15.00;90.10
3356;DHT22;1691;52.486;13.374;2023-03-14T15:02:50;15.00;89.90
3356;DHT22;1691;52.486;13.374;2023-03-14T15:05:26;14.90;89.50
3356;DHT22;1691;52.486;13.374;2023-03-14T15:07:54;14.80;89.30
3356;DHT22;1691;52.486;13.374;2023-03-14T15:10:23;14.80;89.20
3356;DHT22;1691;52.486;13.374;2023-03-14T15:12:51;14.70;89.20
3356;DHT22;1691;52.486;13.374;2023-03-14T15:15:18;14.60;89.00
3356;DHT22;1691;52.486;13.374;2023-03-14T15:17:46;14.60;89.20
3356;DHT22;1691;52.486;13.374;2023-03-14T15:20:16;14.50;89.20
3356;DHT22;1691;52.486;13.374;2023-03-14T15:22:46;14.00;87.50
3356;DHT22;1691;52.486;13.374;2023-03-14T15:25:13;12.90;88.40
3356;DHT22;1691;52.486;13.374;2023-03-14T15:28:00;11.50;90.40
3356;DHT22;1691;52.486;13.374;2023-03-14T15:30:27;10.20;92.70
3356;DHT22;1691;52.486;13.374;2023-03-14T15:32:54;9.30;94.50
3356;DHT22;1691;52.486;13.374;2023-03-14T15:35:21;8.80;96.10
3356;DHT22;1691;52.486;13.374;2023-03-14T15:37:48;8.40;97.20
3356;DHT22;1691;52.486;13.374;2023-03-14T15:40:15;8.10;98.10
3356;DHT22;1691;52.486;13.374;2023-03-14T15:42:42;7.90;98.40
3356;DHT22;1691;52.486;13.374;2023-03-14T15:45:09;7.70;98.70
3356;DHT22;1691;52.486;13.374;2023-03-14T15:47:36;7.60;98.70
3356;DHT22;1691;52.486;13.374;2023-03-14T15:50:04;7.50;98.70
3356;DHT22;1691;52.486;13.374;2023-03-14T15:52:31;7.40;98.70
3356;DHT22;1691;52.486;13.374;2023-03-14T15:54:58;7.30;98.70
3356;DHT22;1691;52.486;13.374;2023-03-14T15:57:25;7.20;98.70
3356;DHT22;1691;52.486;13.374;2023-03-14T15:59:52;7.00;98.70
3356;DHT22;1691;52.486;13.374;2023-03-14T16:02:19;6.80;98.70
3356;DHT22;1691;52.486;13.374;2023-03-14T16:04:46;6.60;98.70
3356;DHT22;1691;52.486;13.374;2023-03-14T16:07:13;6.40;98.70
3356;DHT22;1691;52.486;13.374;2023-03-14T16:09:40;6.20;98.70
3356;DHT22;1691;52.486;13.374;2023-03-14T16:12:07;6.00;98.70
3356;DHT22;1691;52.486;13.374;2023-03-14T16:14:35;5.80;98.70
3356;DHT22;1691;52.486;13.374;2023-03-14T16:17:02;5.60;98.70
3356;DHT22;1691;52.486;13.374;2023-03-14T16:19:29;5.40;98.70
3356;DHT22;1691;52.486;13.374;2023-03-14T16:21:57;5.10;98.70
3356;DHT22;1691;52.486;13.374;2023-03-14T16:24:24;4.90;98.70
3356;DHT22;1691;52.486;13.374;2023-03-14T16:26:51;4.60;98.70
3356;DHT22;1691;52.486;13.374;2023-03-14T16:29:18;4.40;98.70
3356;DHT22;1691;52.486;13.374;2023-03-14T16:31:45;4.30;98.70
3356;DHT22;1691;52.486;13.374;2023-03-14T16:34:13;4.10;98.70
3356;DHT22;1691;52.486;13.374;2023-03-14T16:36:40;3.90;98.70
3356;DHT22;1691;52.486;13.374;2023-03-14T16:39:07;3.80;98.70
3356;DHT22;1691;52.486;13.374;2023-03-14T16:41:33;3.70;98.70
3356;DHT22;1691;52.486;13.374;2023-03-14T16:44:01;3.70;98.70
3356;DHT22;1691;52.486;13.374;2023-03-14T16:46:28;3.60;98.70
3356;DHT22;1691;52.486;13.374;2023-03-14T16:48:56;3.60;98.70
3356;DHT22;1691;52.486;13.374;2023-03-14T16:51:24;3.60;98.70
3356;DHT22;1691;52.486;13.374;2023-03-14T16:53:51;3.60;98.70
3356;DHT22;1691;52.486;13.374;2023-03-14T16:56:18;3.60;98.70
3356;DHT22;1691;52.486;13.374;2023-03-14T16:58:45;3.60;98.70
3356;DHT22;1691;52.486;13.374;2023-03-14T17:01:14;3.60;98.70
3356;DHT22;1691;52.486;13.374;2023-03-14T17:03:46;3.70;98.70
3356;DHT22;1691;52.486;13.374;2023-03-14T17:06:17;3.70;98.70
3356;DHT22;1691;52.486;13.374;2023-03-14T17:08:52;3.80;98.70
3356;DHT22;1691;52.486;13.374;2023-03-14T17:11:20;3.80;98.70
3356;DHT22;1691;52.486;13.374;2023-03-14T17:13:48;3.80;98.70
3356;DHT22;1691;52.486;13.374;2023-03-14T17:16:15;3.80;98.70
3356;DHT22;1691;52.486;13.374;2023-03-14T17:18:42;3.80;98.70
3356;DHT22;1691;52.486;13.374;2023-03-14T17:21:09;3.80;98.70
3356;DHT22;1691;52.486;13.374;2023-03-14T17:23:35;3.70;98.70
3356;DHT22;1691;52.486;13.374;2023-03-14T17:26:03;3.70;98.70
3356;DHT22;1691;52.486;13.374;2023-03-14T17:28:30;3.80;98.70
3356;DHT22;1691;52.486;13.374;2023-03-14T17:31:09;3.80;98.70
3356;DHT22;1691;52.486;13.374;2023-03-14T17:33:45;3.80;98.70
3356;DHT22;1691;52.486;13.374;2023-03-14T17:36:13;3.80;98.70
3356;DHT22;1691;52.486;13.374;2023-03-14T17:38:40;3.80;98.70
3356;DHT22;1691;52.486;13.374;2023-03-14T17:41:12;3.90;98.70
3356;DHT22;1691;52.486;13.374;2023-03-14T17:43:40;3.90;98.70
3356;DHT22;1691;52.486;13.374;2023-03-14T17:46:10;4.00;98.70
3356;DHT22;1691;52.486;13.374;2023-03-14T17:48:41;4.00;98.70
3356;DHT22;1691;52.486;13.374;2023-03-14T17:51:10;4.00;98.70
3356;DHT22;1691;52.486;13.374;2023-03-14T17:53:38;4.10;98.70
3356;DHT22;1691;52.486;13.374;2023-03-14T17:56:08;4.10;98.70
3356;DHT22;1691;52.486;13.374;2023-03-14T17:58:35;4.10;98.70
3356;DHT22;1691;52.486;13.374;2023-03-14T18:01:08;4.20;98.70
3356;DHT22;1691;52.486;13.374;2023-03-14T18:03:38;4.20;98.70
3356;DHT22;1691;52.486;13.374;2023-03-14T18:06:07;4.20;98.70
3356;DHT22;1691;52.486;13.374;2023-03-14T18:08:36;4.20;98.70
3356;DHT22;1691;52.486;13.374;2023-03-14T18:11:04;4.30;98.70
3356;DHT22;1691;52.486;13.374;2023-03-14T18:13:32;4.30;98.70
3356;DHT22;1691;52.486;13.374;2023-03-14T18:15:59;4.30;98.70
3356;DHT22;1691;52.486;13.374;2023-03-14T18:18:26;4.30;98.70
3356;DHT22;1691;52.486;13.374;2023-03-14T18:20:55;4.30;98.70
3356;DHT22;1691;52.486;13.374;2023-03-14T18:23:22;4.20;98.70
3356;DHT22;1691;52.486;13.374;2023-03-14T18:25:50;4.20;98.70
3356;DHT22;1691;52.486;13.374;2023-03-14T18:28:18;4.20;98.70
3356;DHT22;1691;52.486;13.374;2023-03-14T18:30:46;4.20;98.70
3356;DHT22;1691;52.486;13.374;2023-03-14T18:33:21;4.20;98.70
3356;DHT22;1691;52.486;13.374;2023-03-14T18:35:48;4.30;98.70
3356;DHT22;1691;52.486;13.374;2023-03-14T18:38:19;4.30;98.70
3356;DHT22;1691;52.486;13.374;2023-03-14T18:40:46;4.20;98.70
3356;DHT22;1691;52.486;13.374;2023-03-14T18:43:13;4.20;98.70
3356;DHT22;1691;52.486;13.374;2023-03-14T18:45:40;4.20;98.70
3356;DHT22;1691;52.486;13.374;2023-03-14T18:48:07;4.20;98.70
3356;DHT22;1691;52.486;13.374;2023-03-14T18:50:34;4.20;98.70
3356;DHT22;1691;52.486;13.374;2023-03-14T18:53:01;4.20;98.70
3356;DHT22;1691;52.486;13.374;2023-03-14T18:55:28;4.20;98.70
3356;DHT22;1691;52.486;13.374;2023-03-14T18:57:55;4.20;98.70
3356;DHT22;1691;52.486;13.374;2023-03-14T19:00:22;4.10;98.70
3356;DHT22;1691;52.486;13.374;2023-03-14T19:02:52;4.10;98.70
3356;DHT22;1691;52.486;13.374;2023-03-14T19:05:19;4.10;98.70
3356;DHT22;1691;52.486;13.374;2023-03-14T19:07:46;4.20;98.70
3356;DHT22;1691;52.486;13.374;2023-03-14T19:10:13;4.20;98.70
3356;DHT22;1691;52.486;13.374;2023-03-14T19:12:40;4.20;98.70
3356;DHT22;1691;52.486;13.374;2023-03-14T19:15:08;4.20;98.70
3356;DHT22;1691;52.486;13.374;2023-03-14T19:17:37;4.20;98.70
3356;DHT22;1691;52.486;13.374;2023-03-14T19:20:05;4.10;98.70
3356;DHT22;1691;52.486;13.374;2023-03-14T19:22:32;4.10;98.70
3356;DHT22;1691;52.486;13.374;2023-03-14T19:24:59;4.10;98.70
3356;DHT22;1691;52.486;13.374;2023-03-14T19:27:26;4.10;98.70
3356;DHT22;1691;52.486;13.374;2023-03-14T19:29:53;4.20;98.70